createdAt,value
2019-05-23T00:01:14.518Z,54.89
2019-05-23T00:04:14.249Z,54.91
2019-05-23T00:07:07.133Z,54.94
2019-05-23T00:09:58.248Z,54.98
2019-05-23T00:12:57.104Z,54.98
2019-05-23T00:15:44.836Z,55.00
2019-05-23T00:18:21.265Z,55.09
2019-05-23T00:20:51.672Z,55.04
2019-05-23T00:23:23.079Z,55.03
2019-05-23T00:25:54.327Z,55.06
2019-05-23T00:28:25.845Z,55.09
2019-05-23T00:31:05.154Z,55.09
2019-05-23T00:33:38.129Z,55.08
2019-05-23T00:36:11.174Z,55.13
2019-05-23T00:38:42.388Z,55.13
2019-05-23T00:41:14.328Z,55.13
2019-05-23T00:43:46.054Z,55.12
2019-05-23T00:46:17.773Z,55.14
2019-05-23T00:48:51.039Z,55.15
2019-05-23T00:51:23.496Z,55.16
2019-05-23T00:53:54.798Z,55.21
2019-05-23T00:56:26.311Z,55.21
2019-05-23T00:58:58.296Z,55.24
2019-05-23T01:01:29.993Z,55.28
2019-05-23T01:04:01.337Z,55.29
2019-05-23T01:06:33.449Z,55.35
2019-05-23T01:09:07.040Z,55.41
2019-05-23T01:11:38.564Z,55.44
2019-05-23T01:14:09.993Z,55.51
2019-05-23T01:16:41.228Z,55.60
2019-05-23T01:19:12.698Z,55.66
2019-05-23T01:21:56.659Z,55.76
2019-05-23T01:24:59.451Z,55.84
2019-05-23T01:27:31.151Z,55.96
2019-05-23T01:30:03.553Z,56.02
2019-05-23T01:32:44.328Z,56.15
2019-05-23T01:35:20.144Z,56.20
2019-05-23T01:37:51.390Z,56.17
2019-05-23T01:40:22.761Z,56.22
2019-05-23T01:42:54.239Z,56.25
2019-05-23T01:45:26.514Z,56.28
2019-05-23T01:47:57.774Z,56.35
2019-05-23T01:50:29.174Z,56.41
2019-05-23T01:53:00.470Z,56.58
2019-05-23T01:55:31.685Z,56.57
2019-05-23T01:58:03.572Z,56.69
2019-05-23T02:00:36.401Z,56.68
2019-05-23T02:03:08.072Z,56.67
2019-05-23T02:05:40.175Z,56.78
2019-05-23T02:08:12.722Z,56.71
2019-05-23T02:10:44.322Z,56.72
2019-05-23T02:13:15.959Z,56.72
2019-05-23T02:15:47.636Z,56.75
2019-05-23T02:18:18.861Z,56.72
2019-05-23T02:20:50.798Z,56.71
2019-05-23T02:23:22.721Z,56.79
2019-05-23T02:25:54.671Z,56.84
2019-05-23T02:28:26.139Z,56.86
2019-05-23T02:30:58.216Z,56.91
2019-05-23T02:33:30.644Z,56.88
2019-05-23T02:36:02.405Z,57.04
2019-05-23T02:38:44.303Z,57.03
2019-05-23T02:41:26.587Z,57.03
2019-05-23T02:44:03.668Z,57.06
2019-05-23T02:46:42.347Z,57.04
2019-05-23T02:49:15.863Z,57.10
2019-05-23T02:51:47.360Z,57.12
2019-05-23T02:54:19.948Z,57.19
2019-05-23T02:56:52.869Z,57.23
2019-05-23T02:59:47.957Z,57.27
2019-05-23T03:03:02.580Z,57.23
2019-05-23T03:05:37.356Z,57.24
2019-05-23T03:08:12.451Z,57.23
2019-05-23T03:11:09.925Z,57.16
2019-05-23T03:13:41.855Z,57.13
2019-05-23T03:16:19.459Z,57.13
2019-05-23T03:18:56.153Z,57.15
2019-05-23T03:21:29.300Z,57.17
2019-05-23T03:24:01.794Z,57.19
2019-05-23T03:27:16.856Z,57.22
2019-05-23T03:29:48.485Z,57.27
2019-05-23T03:32:50.866Z,57.26
2019-05-23T03:35:50.208Z,57.19
2019-05-23T03:38:23.061Z,57.22
2019-05-23T03:40:54.787Z,57.23
2019-05-23T03:43:26.757Z,57.29
2019-05-23T03:46:02.433Z,57.27
2019-05-23T03:48:34.129Z,57.29
2019-05-23T03:51:06.379Z,57.36
2019-05-23T03:53:38.538Z,57.43
2019-05-23T03:56:11.319Z,57.49
2019-05-23T03:58:44.231Z,57.52
2019-05-23T04:01:18.091Z,57.50
2019-05-23T04:03:50.522Z,57.49
2019-05-23T04:06:22.381Z,57.46
2019-05-23T04:08:54.128Z,57.40
2019-05-23T04:11:25.318Z,57.34
2019-05-23T04:13:56.623Z,57.33
2019-05-23T04:16:30.595Z,57.25
2019-05-23T04:19:01.161Z,57.23
2019-05-23T04:21:32.327Z,57.21
2019-05-23T04:24:04.016Z,57.16
2019-05-23T04:26:35.204Z,57.11
2019-05-23T04:29:06.532Z,57.09
2019-05-23T04:31:37.718Z,57.08
2019-05-23T04:34:09.880Z,57.08
2019-05-23T04:36:41.057Z,57.06
2019-05-23T04:39:13.276Z,57.03
2019-05-23T04:41:45.132Z,57.02
2019-05-23T04:44:18.239Z,56.76
2019-05-23T04:46:50.202Z,57.18
2019-05-23T04:49:21.650Z,57.22
2019-05-23T04:51:53.574Z,57.20
2019-05-23T04:54:26.097Z,57.17
2019-05-23T04:56:57.330Z,57.12
2019-05-23T04:59:28.640Z,57.11
2019-05-23T05:02:00.733Z,57.04
2019-05-23T05:04:32.516Z,57.01
2019-05-23T05:07:04.474Z,56.94
2019-05-23T05:09:35.818Z,56.94
2019-05-23T05:12:07.642Z,56.89
2019-05-23T05:14:38.942Z,56.85
2019-05-23T05:17:11.775Z,56.84
2019-05-23T05:19:43.053Z,56.82
2019-05-23T05:22:14.641Z,56.78
2019-05-23T05:24:46.163Z,56.73
2019-05-23T05:27:19.326Z,56.74
2019-05-23T05:29:50.770Z,56.68
2019-05-23T05:32:22.257Z,56.65
2019-05-23T05:34:53.507Z,56.56
2019-05-23T05:37:25.026Z,56.49
2019-05-23T05:39:56.352Z,56.44
2019-05-23T05:42:29.392Z,56.32
2019-05-23T05:45:00.891Z,56.24
2019-05-23T05:47:32.221Z,56.08
2019-05-23T05:50:05.775Z,55.97
2019-05-23T05:52:37.441Z,55.82
2019-05-23T05:55:08.690Z,55.69
2019-05-23T05:57:39.907Z,55.55
2019-05-23T06:00:27.842Z,55.45
2019-05-23T06:03:05.543Z,55.36
2019-05-23T06:05:38.947Z,55.27
2019-05-23T06:08:10.800Z,55.16
2019-05-23T06:10:43.283Z,55.04
2019-05-23T06:13:15.280Z,55.02
2019-05-23T06:15:49.017Z,54.97
2019-05-23T06:18:20.658Z,54.85
2019-05-23T06:20:51.916Z,54.74
2019-05-23T06:23:23.133Z,54.68
2019-05-23T06:25:54.721Z,54.60
2019-05-23T06:28:26.023Z,54.54
2019-05-23T06:30:58.115Z,54.45
2019-05-23T06:33:30.697Z,54.35
2019-05-23T06:36:02.758Z,54.30
2019-05-23T06:38:35.222Z,54.21
2019-05-23T06:41:06.776Z,54.22
2019-05-23T06:43:38.583Z,54.27
2019-05-23T06:46:09.825Z,54.24
2019-05-23T06:48:45.601Z,54.17
2019-05-23T06:51:14.207Z,54.11
2019-05-23T06:53:45.457Z,54.03
2019-05-23T06:56:17.710Z,53.99
2019-05-23T06:58:48.985Z,53.93
2019-05-23T07:01:20.478Z,53.86
2019-05-23T07:03:52.043Z,53.82
2019-05-23T07:06:25.045Z,53.72
2019-05-23T07:08:57.356Z,53.60
2019-05-23T07:11:28.763Z,53.54
2019-05-23T07:13:59.974Z,53.52
2019-05-23T07:16:31.510Z,53.45
2019-05-23T07:19:02.752Z,53.35
2019-05-23T07:21:34.350Z,53.29
2019-05-23T07:24:06.493Z,53.19
2019-05-23T07:26:38.080Z,53.03
2019-05-23T07:29:10.419Z,52.84
2019-05-23T07:31:41.710Z,52.69
2019-05-23T07:34:12.951Z,52.55
2019-05-23T07:36:44.318Z,52.34
2019-05-23T07:39:16.756Z,52.34
2019-05-23T07:41:48.807Z,52.10
2019-05-23T07:44:20.527Z,52.05
2019-05-23T07:46:52.509Z,52.06
2019-05-23T07:49:24.121Z,52.07
2019-05-23T07:51:55.402Z,51.82
2019-05-23T07:54:34.892Z,51.89
2019-05-23T07:57:10.755Z,51.73
2019-05-23T07:59:42.503Z,51.71
2019-05-23T08:02:25.832Z,51.50
2019-05-23T08:04:59.303Z,51.08
2019-05-23T08:07:32.777Z,50.89
2019-05-23T08:10:03.454Z,50.62
2019-05-23T08:12:34.686Z,50.43
2019-05-23T08:15:06.262Z,50.19
2019-05-23T08:17:38.285Z,49.82
2019-05-23T08:20:12.536Z,49.85
2019-05-23T08:22:43.997Z,49.71
2019-05-23T08:25:15.287Z,49.59
2019-05-23T08:27:46.809Z,49.51
2019-05-23T08:30:18.343Z,49.26
2019-05-23T08:32:49.862Z,49.03
2019-05-23T08:35:21.933Z,48.94
2019-05-23T08:37:53.606Z,48.67
2019-05-23T08:40:27.909Z,48.39
2019-05-23T08:42:59.057Z,48.14
2019-05-23T08:45:30.527Z,47.64
2019-05-23T08:48:01.986Z,47.28
2019-05-23T08:50:33.602Z,47.31
2019-05-23T08:53:05.128Z,47.30
2019-05-23T08:55:37.194Z,47.23
2019-05-23T08:58:09.383Z,47.16
2019-05-23T09:00:41.527Z,46.99
2019-05-23T09:03:12.899Z,46.68
2019-05-23T09:05:44.672Z,46.41
2019-05-23T09:08:17.377Z,46.49
2019-05-23T09:10:50.715Z,46.73
2019-05-23T09:13:22.007Z,46.78
2019-05-23T09:15:53.692Z,46.76
2019-05-23T09:18:25.244Z,46.49
2019-05-23T09:20:57.161Z,46.36
2019-05-23T09:23:28.664Z,46.20
2019-05-23T09:26:00.045Z,46.01
2019-05-23T09:28:31.721Z,46.05
2019-05-23T09:31:02.977Z,45.89
2019-05-23T09:33:35.602Z,45.78
2019-05-23T09:36:06.978Z,45.70
2019-05-23T09:38:38.337Z,45.61
2019-05-23T09:41:09.996Z,45.51
2019-05-23T09:43:43.082Z,45.44
2019-05-23T09:46:14.441Z,44.95
2019-05-23T09:48:45.758Z,45.06
2019-05-23T09:51:16.996Z,44.98
2019-05-23T09:53:48.376Z,45.03
2019-05-23T09:56:19.632Z,44.56
2019-05-23T09:58:50.911Z,44.74
2019-05-23T10:01:22.570Z,44.79
2019-05-23T10:03:54.044Z,44.57
2019-05-23T10:06:29.584Z,44.40
2019-05-23T10:09:00.929Z,44.25
2019-05-23T10:11:33.790Z,44.11
2019-05-23T10:14:07.322Z,43.94
2019-05-23T10:16:38.675Z,43.66
2019-05-23T10:19:10.166Z,43.63
2019-05-23T10:21:42.124Z,43.57
2019-05-23T10:24:13.998Z,42.92
2019-05-23T10:26:45.522Z,43.03
2019-05-23T10:29:16.994Z,42.94
2019-05-23T10:31:48.475Z,42.83
2019-05-23T10:34:19.626Z,42.73
2019-05-23T10:36:50.949Z,42.35
2019-05-23T10:39:22.291Z,42.44
2019-05-23T10:41:53.538Z,42.17
2019-05-23T10:44:24.993Z,42.28
2019-05-23T10:46:56.196Z,42.31
2019-05-23T10:49:27.953Z,42.30
2019-05-23T10:51:59.388Z,42.06
2019-05-23T10:54:30.979Z,41.99
2019-05-23T10:57:02.237Z,41.66
2019-05-23T10:59:33.625Z,41.50
2019-05-23T11:02:06.459Z,41.10
2019-05-23T11:04:40.471Z,41.33
2019-05-23T11:07:12.976Z,41.03
2019-05-23T11:09:44.501Z,41.04
2019-05-23T11:12:18.156Z,40.87
2019-05-23T11:14:50.112Z,40.75
2019-05-23T11:17:21.353Z,40.59
2019-05-23T11:19:52.519Z,40.55
2019-05-23T11:22:23.806Z,40.39
2019-05-23T11:24:55.108Z,40.29
2019-05-23T11:27:26.880Z,39.99
2019-05-23T11:29:58.398Z,40.08
2019-05-23T11:32:30.100Z,39.86
2019-05-23T11:35:01.769Z,39.78
2019-05-23T11:37:33.520Z,39.65
2019-05-23T11:40:05.455Z,39.65
2019-05-23T11:42:36.716Z,39.38
2019-05-23T11:45:08.767Z,39.19
2019-05-23T11:47:40.268Z,39.00
2019-05-23T11:50:11.834Z,39.28
2019-05-23T11:52:43.266Z,39.05
2019-05-23T11:55:14.820Z,38.84
2019-05-23T11:57:49.109Z,38.40
2019-05-23T12:00:27.172Z,38.22
2019-05-23T12:02:58.851Z,38.06
2019-05-23T12:05:30.411Z,38.00
2019-05-23T12:08:01.898Z,38.02
2019-05-23T12:10:36.535Z,37.46
2019-05-23T12:13:08.174Z,34.51
2019-05-23T12:15:41.083Z,35.34
2019-05-23T12:18:12.462Z,35.81
2019-05-23T12:20:43.959Z,36.02
2019-05-23T12:23:15.570Z,35.87
2019-05-23T12:28:17.883Z,36.04
2019-05-23T12:30:49.789Z,35.77
2019-05-23T12:33:21.099Z,35.73
2019-05-23T12:35:52.282Z,36.01
2019-05-23T12:38:23.575Z,35.80
2019-05-23T12:40:54.746Z,35.62
2019-05-23T12:43:26.170Z,32.59
2019-05-23T12:45:57.358Z,33.09
2019-05-23T12:48:53.620Z,33.58
2019-05-23T12:51:28.474Z,33.88
2019-05-23T12:53:59.784Z,34.14
2019-05-23T12:56:31.548Z,34.05
2019-05-23T12:59:04.929Z,34.40
2019-05-23T13:01:38.186Z,34.32
2019-05-23T13:04:10.916Z,34.25
2019-05-23T13:06:42.261Z,34.13
2019-05-23T13:09:13.542Z,34.04
2019-05-23T13:11:44.843Z,33.88
2019-05-23T13:14:16.345Z,33.77
2019-05-23T13:16:47.640Z,33.42
2019-05-23T13:19:19.324Z,33.25
2019-05-23T13:21:50.749Z,33.35
2019-05-23T13:24:22.217Z,32.88
2019-05-23T13:26:53.609Z,33.03
2019-05-23T13:29:25.086Z,32.82
2019-05-23T13:31:56.759Z,32.21
2019-05-23T13:34:28.085Z,32.12
2019-05-23T13:36:59.663Z,30.89
2019-05-23T13:39:31.339Z,28.33
2019-05-23T13:42:02.581Z,26.08
2019-05-23T13:44:35.908Z,25.36
2019-05-23T13:47:07.294Z,25.31
2019-05-23T13:49:39.648Z,25.65
2019-05-23T13:52:11.225Z,25.14
2019-05-23T13:54:42.567Z,25.14
2019-05-23T13:57:14.283Z,25.89
2019-05-23T13:59:45.428Z,26.19
2019-05-23T14:02:16.885Z,26.54
2019-05-23T14:04:48.452Z,26.76
2019-05-23T14:07:19.801Z,26.83
2019-05-23T14:09:51.604Z,27.13
2019-05-23T14:12:23.940Z,27.58
2019-05-23T14:14:55.253Z,27.49
2019-05-23T14:17:36.148Z,26.95
2019-05-23T14:20:10.077Z,26.63
2019-05-23T14:22:46.334Z,26.75
2019-05-23T14:25:18.700Z,27.00
2019-05-23T14:28:04.319Z,27.26
2019-05-23T14:31:00.806Z,27.55
2019-05-23T14:33:51.157Z,28.25
2019-05-23T14:36:57.835Z,28.70
2019-05-23T14:39:47.962Z,28.94
2019-05-23T14:42:37.190Z,29.21
2019-05-23T14:45:24.850Z,29.10
2019-05-23T14:48:02.785Z,28.85
2019-05-23T14:50:52.671Z,28.51
2019-05-23T14:53:26.528Z,28.04
2019-05-23T14:55:58.106Z,27.81
2019-05-23T14:58:29.890Z,27.70
2019-05-23T15:01:02.498Z,27.32
2019-05-23T15:03:35.983Z,26.21
2019-05-23T15:06:08.022Z,25.90
2019-05-23T15:08:50.387Z,25.94
2019-05-23T15:11:12.902Z,25.90
2019-05-23T15:13:44.245Z,25.04
2019-05-23T15:16:16.630Z,24.09
2019-05-23T15:18:48.011Z,23.92
2019-05-23T15:21:19.580Z,24.22
2019-05-23T15:23:50.841Z,24.56
2019-05-23T15:26:23.673Z,24.88
2019-05-23T15:28:55.235Z,25.04
2019-05-23T15:31:26.628Z,25.18
2019-05-23T15:33:58.797Z,25.42
2019-05-23T15:36:30.467Z,25.69
2019-05-23T15:39:09.663Z,25.99
2019-05-23T15:41:34.765Z,26.25
2019-05-23T15:44:22.626Z,26.56
2019-05-23T15:46:40.805Z,26.80
2019-05-23T15:49:13.732Z,26.93
2019-05-23T15:51:54.638Z,27.05
2019-05-23T15:54:34.536Z,27.24
2019-05-23T15:57:14.524Z,27.51
2019-05-23T16:00:03.790Z,27.66
2019-05-23T16:02:42.394Z,27.78
2019-05-23T16:05:14.868Z,27.91
2019-05-23T16:07:46.475Z,27.95
2019-05-23T16:10:18.094Z,28.02
2019-05-23T16:12:49.764Z,28.07
2019-05-23T16:15:21.038Z,28.12
2019-05-23T16:17:52.389Z,28.15
2019-05-23T16:20:24.580Z,28.19
2019-05-23T16:22:56.229Z,28.26
2019-05-23T16:25:27.465Z,28.33
2019-05-23T16:27:58.893Z,28.40
2019-05-23T16:30:31.216Z,28.49
2019-05-23T16:33:02.651Z,28.51
2019-05-23T16:35:34.035Z,28.56
2019-05-23T16:38:05.581Z,28.61
2019-05-23T16:40:36.800Z,28.65
2019-05-23T16:43:08.405Z,28.81
2019-05-23T16:45:39.662Z,28.90
2019-05-23T16:48:11.018Z,29.07
2019-05-23T16:50:42.272Z,29.14
2019-05-23T16:53:13.483Z,29.20
2019-05-23T16:55:57.729Z,29.28
2019-05-23T16:58:51.176Z,26.84
2019-05-23T17:01:57.071Z,27.86
2019-05-23T17:04:32.126Z,28.35
2019-05-23T17:07:14.928Z,28.75
2019-05-23T17:10:08.372Z,28.96
2019-05-23T17:12:53.065Z,29.08
2019-05-23T17:15:42.733Z,26.98
2019-05-23T17:18:26.898Z,27.99
2019-05-23T17:21:04.000Z,28.48
2019-05-23T17:23:47.109Z,28.79
2019-05-23T17:26:24.539Z,27.22
2019-05-23T17:28:55.953Z,26.79
2019-05-23T17:31:32.975Z,27.66
2019-05-23T17:34:04.292Z,28.10
2019-05-23T17:36:35.587Z,28.36
2019-05-23T17:39:10.258Z,28.59
2019-05-23T17:41:42.696Z,28.75
2019-05-23T17:44:14.690Z,28.87
2019-05-23T17:46:46.216Z,29.00
2019-05-23T17:49:17.836Z,29.12
2019-05-23T17:51:49.307Z,29.27
2019-05-23T17:54:20.834Z,29.45
2019-05-23T17:56:52.054Z,29.61
2019-05-23T17:59:23.418Z,29.72
2019-05-23T18:01:55.449Z,29.77
2019-05-23T18:04:28.209Z,29.83
2019-05-23T18:06:59.664Z,29.93
2019-05-23T18:09:31.889Z,30.04
2019-05-23T18:12:03.927Z,30.18
2019-05-23T18:14:36.753Z,30.34
2019-05-23T18:17:09.443Z,30.50
2019-05-23T18:19:42.151Z,30.69
2019-05-23T18:22:14.099Z,30.89
2019-05-23T18:24:46.051Z,31.05
2019-05-23T18:27:17.748Z,31.19
2019-05-23T18:29:49.437Z,31.34
2019-05-23T18:32:24.959Z,31.47
2019-05-23T18:34:56.185Z,31.67
2019-05-23T18:37:27.530Z,31.85
2019-05-23T18:39:58.737Z,32.04
2019-05-23T18:42:30.084Z,32.24
2019-05-23T18:45:01.938Z,32.41
2019-05-23T18:47:38.422Z,32.57
2019-05-23T18:50:11.520Z,32.72
2019-05-23T18:52:44.039Z,32.93
2019-05-23T18:55:16.998Z,33.06
2019-05-23T18:57:48.505Z,33.21
2019-05-23T19:00:25.266Z,33.39
2019-05-23T19:02:56.845Z,33.54
2019-05-23T19:05:29.767Z,33.68
2019-05-23T19:08:04.898Z,33.85
2019-05-23T19:10:38.213Z,34.01
2019-05-23T19:13:09.604Z,34.17
2019-05-23T19:15:41.612Z,34.38
2019-05-23T19:18:13.117Z,34.51
2019-05-23T19:20:44.710Z,34.70
2019-05-23T19:23:16.333Z,34.85
2019-05-23T19:25:49.697Z,35.03
2019-05-23T19:28:22.532Z,35.24
2019-05-23T19:30:54.096Z,35.43
2019-05-23T19:33:26.197Z,35.58
2019-05-23T19:35:57.573Z,35.95
2019-05-23T19:38:28.801Z,36.03
2019-05-23T19:41:00.114Z,36.17
2019-05-23T19:43:33.386Z,36.37
2019-05-23T19:46:04.973Z,36.46
2019-05-23T19:48:39.794Z,36.58
2019-05-23T19:51:13.597Z,36.71
2019-05-23T19:53:45.124Z,36.81
2019-05-23T19:56:22.803Z,36.93
2019-05-23T19:58:58.444Z,37.04
2019-05-23T20:01:34.187Z,37.18
2019-05-23T20:04:07.197Z,37.27
2019-05-23T20:06:39.204Z,37.40
2019-05-23T20:09:13.511Z,37.53
2019-05-23T20:11:56.267Z,37.65
2019-05-23T20:14:44.241Z,37.80
2019-05-23T20:17:21.932Z,37.98
2019-05-23T20:20:07.561Z,38.10
2019-05-23T20:22:53.966Z,38.22
2019-05-23T20:25:28.847Z,38.35
2019-05-23T20:28:07.389Z,38.47
2019-05-23T20:30:57.629Z,38.63
2019-05-23T20:40:19.583Z,38.83
2019-05-23T20:43:09.209Z,38.92
2019-05-23T20:45:49.362Z,39.04
2019-05-23T20:48:20.988Z,39.13
2019-05-23T20:50:52.974Z,39.22
2019-05-23T20:53:27.551Z,39.32
2019-05-23T20:55:58.982Z,39.37
2019-05-23T20:58:30.518Z,39.46
2019-05-23T21:01:22.403Z,39.58
2019-05-23T21:03:58.221Z,39.69
2019-05-23T21:06:31.602Z,39.83
2019-05-23T21:09:05.141Z,39.96
2019-05-23T21:11:36.939Z,40.10
2019-05-23T21:15:06.291Z,40.24
2019-05-23T21:17:31.943Z,40.35
2019-05-23T21:20:11.391Z,40.48
2019-05-23T21:22:49.057Z,40.56
2019-05-23T21:25:20.309Z,40.73
2019-05-23T21:27:52.549Z,40.84
2019-05-23T21:30:33.521Z,40.95
2019-05-23T21:33:06.917Z,41.08
2019-05-23T21:35:46.101Z,41.21
2019-05-23T21:38:17.506Z,41.34
2019-05-23T21:40:49.700Z,41.44
2019-05-23T21:43:22.663Z,41.54
2019-05-23T21:45:55.538Z,41.68
2019-05-23T21:48:30.056Z,41.80
2019-05-23T21:51:03.159Z,41.92
2019-05-23T21:53:35.207Z,42.01
2019-05-23T21:56:07.099Z,42.09
2019-05-23T21:58:38.575Z,42.17
2019-05-23T22:02:06.135Z,42.27
2019-05-23T22:04:52.925Z,42.40
2019-05-23T22:07:27.317Z,42.53
2019-05-23T22:10:00.780Z,42.60
2019-05-23T22:12:37.474Z,42.70
2019-05-23T22:15:09.043Z,42.84
2019-05-23T22:17:45.279Z,42.95
2019-05-23T22:20:18.297Z,43.05
2019-05-23T22:22:51.700Z,43.12
2019-05-23T22:25:34.549Z,43.19
2019-05-23T22:28:06.120Z,43.26
2019-05-23T22:30:48.332Z,43.38
2019-05-23T22:33:22.432Z,43.46
2019-05-23T22:35:56.945Z,43.61
2019-05-23T22:38:29.224Z,43.73
2019-05-23T22:41:03.946Z,43.82
2019-05-23T22:43:35.220Z,43.93
2019-05-23T22:46:07.764Z,44.06
2019-05-23T22:48:39.066Z,44.18
2019-05-23T22:51:11.733Z,44.29
2019-05-23T22:53:43.430Z,44.44
2019-05-23T22:56:20.406Z,44.61
2019-05-23T22:58:52.214Z,44.73
2019-05-23T23:01:29.149Z,44.92
2019-05-23T23:04:00.947Z,45.08
2019-05-23T23:06:33.735Z,45.24
2019-05-23T23:09:09.518Z,45.41
2019-05-23T23:11:40.981Z,45.52
2019-05-23T23:14:12.575Z,45.64
2019-05-23T23:16:45.670Z,45.80
2019-05-23T23:19:17.449Z,45.96
2019-05-23T23:21:48.802Z,46.09
2019-05-23T23:24:20.443Z,46.25
2019-05-23T23:26:51.664Z,46.35
2019-05-23T23:29:23.308Z,46.44
2019-05-23T23:31:56.529Z,46.57
2019-05-23T23:34:27.962Z,46.63
2019-05-23T23:37:00.442Z,46.70
2019-05-23T23:39:32.014Z,46.74
2019-05-23T23:42:04.710Z,46.79
2019-05-23T23:44:35.172Z,46.86
2019-05-23T23:47:24.333Z,46.86
2019-05-23T23:50:13.221Z,46.87
2019-05-23T23:53:05.187Z,46.88
2019-05-23T23:55:57.363Z,46.94
2019-05-23T23:58:46.706Z,46.99
